Latest METARs, TAFs and NOTAMs for RJCC


---------------------------------------------------------------------------
	(OBSERVATIONS)
RJCC 170230Z 35009KT 9999 FEW030 SCT080 M06/M11 Q1012 RMK 1CU030
    3AC080 A2988=
RJCC 170200Z 34010KT 9999 FEW030 M06/M11 Q1012 RMK 1CU030 A2990=
RJCC 170130Z 34010KT 9999 FEW030 M07/M11 Q1012 RMK 1CU030 A2990=
RJCC 170100Z 35012KT 9999 FEW020 M07/M11 Q1012 RMK 1CU020 A2990=
RJCC 170030Z 34010KT 9999 FEW010 M07/M11 Q1013 RMK 1ST010 A2991=
RJCC 170000Z 34010KT 9999 FEW010 SCT050 BKN/// M07/M11 Q1012
    RMK 1ST010 3CU050 A2991=
---------------------------------------------------------------------------
	(TERMINAL AREA FORECAST)
RJCC 162305Z 1700/1806 34008KT 9999 FEW008 BKN020
    TEMPO 1700/1703 3000 -SHSN
    BECMG 1709/1711 15005KT
    TEMPO 1709/1712 3000 -SHSN=
---------------------------------------------------------------------------
	(NOTAMS)


RJCC C1371/20 REF AIP SUP 112/20 ITEM TWY:B TWY E2,E3,E5,M2-CLSD.
    17 JUN 15:00 2020 UNTIL 31 MAY 15:00 2021 ESTIMATED. CREATED:
    16 JUN 02:59 2020

RJCC C2564/20 REF AIP SUP 112/20 ITEM TWY:5 STOP BAR LGT FOR
    A1 THRU A10,B2 THRU B4-U/S. 18 NOV 14:00 2020 UNTIL 12 MAR
    21:00 2021 ESTIMATED. CREATED: 16 NOV 04:50 2020

RJCC C2572/20 TAXIING GUIDANCE SIGN FOR TWY E9-PARTLY U/S DUE
    TO SN. 17 NOV 14:00 2020 UNTIL 16 FEB 14:00 2021 ESTIMATED.
    CREATED: 17 NOV 08:04 2020

RJCC V0286/20 [US DOD PROCEDURAL NOTAM] INSTRUMENT APPROACH PROCEDURE
    CHANGED ILS Z OR LOC Z RWY 01R: MAKE THE FOLLOWING CHANGE
    TO THE DOD IAP ILS Z OR LOC Z RWY 01R MINIMA: S-ILS 01R*
    292-600M 235 (200-600M). 05 NOV 23:34 2020 UNTIL 31 JAN 00:01
    2021. CREATED: 05 NOV 23:34 2020

---------------------------------------------------------------------------